sensor_id;sensor_type;location;lat;lon;timestamp;temperature;humidity
997;DHT22;487;50.126;8.698;2023-08-07T04:01:46;13.80;99.90
997;DHT22;487;50.126;8.698;2023-08-07T04:06:42;13.80;99.90
997;DHT22;487;50.126;8.698;2023-08-07T04:09:10;13.80;99.90
997;DHT22;487;50.126;8.698;2023-08-07T04:11:40;13.90;99.90
997;DHT22;487;50.126;8.698;2023-08-07T04:14:08;13.90;99.90
997;DHT22;487;50.126;8.698;2023-08-07T04:16:36;13.90;99.90
997;DHT22;487;50.126;8.698;2023-08-07T04:19:05;14.00;99.90
997;DHT22;487;50.126;8.698;2023-08-07T04:21:34;14.00;99.90
997;DHT22;487;50.126;8.698;2023-08-07T04:24:03;14.00;99.90
997;DHT22;487;50.126;8.698;2023-08-07T04:26:36;14.00;99.90
997;DHT22;487;50.126;8.698;2023-08-07T04:29:06;14.10;99.90
997;DHT22;487;50.126;8.698;2023-08-07T04:31:34;14.10;99.90
997;DHT22;487;50.126;8.698;2023-08-07T04:34:02;14.10;99.90
997;DHT22;487;50.126;8.698;2023-08-07T04:36:31;14.10;99.90
997;DHT22;487;50.126;8.698;2023-08-07T04:39:00;14.10;99.90
997;DHT22;487;50.126;8.698;2023-08-07T04:41:28;14.10;99.90
997;DHT22;487;50.126;8.698;2023-08-07T04:43:55;14.10;99.90
997;DHT22;487;50.126;8.698;2023-08-07T04:46:23;14.10;99.90
997;DHT22;487;50.126;8.698;2023-08-07T04:48:52;14.00;99.90
997;DHT22;487;50.126;8.698;2023-08-07T04:51:21;14.10;99.90
997;DHT22;487;50.126;8.698;2023-08-07T04:53:50;14.20;99.90
997;DHT22;487;50.126;8.698;2023-08-07T04:56:18;14.20;99.90
997;DHT22;487;50.126;8.698;2023-08-07T04:58:46;14.20;99.90
997;DHT22;487;50.126;8.698;2023-08-07T05:01:14;14.30;99.90
997;DHT22;487;50.126;8.698;2023-08-07T05:03:42;14.30;99.90
997;DHT22;487;50.126;8.698;2023-08-07T05:06:10;14.20;99.90
997;DHT22;487;50.126;8.698;2023-08-07T05:08:38;14.30;99.90
997;DHT22;487;50.126;8.698;2023-08-07T05:11:07;14.40;99.90
997;DHT22;487;50.126;8.698;2023-08-07T05:13:35;14.40;99.90
997;DHT22;487;50.126;8.698;2023-08-07T05:16:03;14.40;99.90
997;DHT22;487;50.126;8.698;2023-08-07T05:18:31;14.50;99.90
997;DHT22;487;50.126;8.698;2023-08-07T05:20:59;14.50;99.90
997;DHT22;487;50.126;8.698;2023-08-07T05:23:27;14.40;99.90
997;DHT22;487;50.126;8.698;2023-08-07T05:25:55;14.30;99.90
997;DHT22;487;50.126;8.698;2023-08-07T05:28:24;14.30;99.90
997;DHT22;487;50.126;8.698;2023-08-07T05:30:52;14.20;99.90
997;DHT22;487;50.126;8.698;2023-08-07T05:33:20;14.20;99.90
997;DHT22;487;50.126;8.698;2023-08-07T05:35:48;14.30;99.90
997;DHT22;487;50.126;8.698;2023-08-07T05:38:16;14.20;99.90
997;DHT22;487;50.126;8.698;2023-08-07T05:40:44;14.20;99.90
997;DHT22;487;50.126;8.698;2023-08-07T05:43:12;14.20;99.90
997;DHT22;487;50.126;8.698;2023-08-07T05:45:42;14.20;99.90
997;DHT22;487;50.126;8.698;2023-08-07T05:48:11;14.30;99.90
997;DHT22;487;50.126;8.698;2023-08-07T05:50:39;14.30;99.90
997;DHT22;487;50.126;8.698;2023-08-07T05:53:07;14.40;99.90
997;DHT22;487;50.126;8.698;2023-08-07T05:55:35;14.40;99.90
997;DHT22;487;50.126;8.698;2023-08-07T05:58:03;14.40;99.90
997;DHT22;487;50.126;8.698;2023-08-07T06:00:30;14.50;99.90
997;DHT22;487;50.126;8.698;2023-08-07T06:03:00;14.50;99.90
997;DHT22;487;50.126;8.698;2023-08-07T06:05:28;14.50;99.90
997;DHT22;487;50.126;8.698;2023-08-07T06:07:56;14.50;99.90
997;DHT22;487;50.126;8.698;2023-08-07T06:10:24;14.40;99.90
997;DHT22;487;50.126;8.698;2023-08-07T06:12:52;14.20;99.90
997;DHT22;487;50.126;8.698;2023-08-07T06:15:20;14.20;99.90
997;DHT22;487;50.126;8.698;2023-08-07T06:17:48;14.10;99.90
997;DHT22;487;50.126;8.698;2023-08-07T06:20:25;14.10;99.90
997;DHT22;487;50.126;8.698;2023-08-07T06:22:53;14.10;99.90
997;DHT22;487;50.126;8.698;2023-08-07T06:25:21;14.10;99.90
997;DHT22;487;50.126;8.698;2023-08-07T06:27:50;14.00;99.90
997;DHT22;487;50.126;8.698;2023-08-07T06:30:19;14.00;99.90
997;DHT22;487;50.126;8.698;2023-08-07T06:32:47;14.10;99.90
997;DHT22;487;50.126;8.698;2023-08-07T06:35:15;14.00;99.90
997;DHT22;487;50.126;8.698;2023-08-07T06:37:44;14.00;99.90
997;DHT22;487;50.126;8.698;2023-08-07T06:40:12;14.00;99.90
997;DHT22;487;50.126;8.698;2023-08-07T06:42:39;14.00;99.90
997;DHT22;487;50.126;8.698;2023-08-07T06:45:08;14.00;99.90
997;DHT22;487;50.126;8.698;2023-08-07T06:47:36;14.10;99.90
997;DHT22;487;50.126;8.698;2023-08-07T06:50:04;14.00;99.90
997;DHT22;487;50.126;8.698;2023-08-07T06:52:32;14.00;99.90
997;DHT22;487;50.126;8.698;2023-08-07T06:55:02;14.00;99.90
997;DHT22;487;50.126;8.698;2023-08-07T06:57:29;14.10;99.90
997;DHT22;487;50.126;8.698;2023-08-07T06:59:57;14.20;99.90
997;DHT22;487;50.126;8.698;2023-08-07T07:02:25;14.20;99.90
997;DHT22;487;50.126;8.698;2023-08-07T07:04:53;14.20;99.90
997;DHT22;487;50.126;8.698;2023-08-07T07:07:21;14.20;99.90
997;DHT22;487;50.126;8.698;2023-08-07T07:09:49;14.20;99.90
997;DHT22;487;50.126;8.698;2023-08-07T07:12:18;14.30;99.90
997;DHT22;487;50.126;8.698;2023-08-07T07:14:46;14.30;99.90
997;DHT22;487;50.126;8.698;2023-08-07T07:17:14;14.20;99.90
997;DHT22;487;50.126;8.698;2023-08-07T07:19:42;14.20;99.90
997;DHT22;487;50.126;8.698;2023-08-07T07:22:10;14.20;99.90
997;DHT22;487;50.126;8.698;2023-08-07T07:24:39;14.30;99.90
997;DHT22;487;50.126;8.698;2023-08-07T07:27:07;14.40;99.90
997;DHT22;487;50.126;8.698;2023-08-07T07:29:36;14.40;99.90
997;DHT22;487;50.126;8.698;2023-08-07T07:32:05;14.30;99.90
997;DHT22;487;50.126;8.698;2023-08-07T07:34:33;14.40;99.90
997;DHT22;487;50.126;8.698;2023-08-07T07:37:01;14.50;99.90
997;DHT22;487;50.126;8.698;2023-08-07T07:39:29;14.50;99.90
997;DHT22;487;50.126;8.698;2023-08-07T07:41:57;14.50;99.90
997;DHT22;487;50.126;8.698;2023-08-07T07:44:25;14.50;99.90
997;DHT22;487;50.126;8.698;2023-08-07T07:46:54;14.50;99.90
997;DHT22;487;50.126;8.698;2023-08-07T07:49:22;14.60;99.90
997;DHT22;487;50.126;8.698;2023-08-07T07:51:50;14.50;99.90
997;DHT22;487;50.126;8.698;2023-08-07T07:54:18;14.50;99.90
997;DHT22;487;50.126;8.698;2023-08-07T07:56:46;14.50;99.90
997;DHT22;487;50.126;8.698;2023-08-07T07:59:14;14.40;99.90
997;DHT22;487;50.126;8.698;2023-08-07T08:01:42;14.50;99.90
997;DHT22;487;50.126;8.698;2023-08-07T08:04:12;14.50;99.90
997;DHT22;487;50.126;8.698;2023-08-07T08:06:40;14.60;99.90
997;DHT22;487;50.126;8.698;2023-08-07T08:09:08;14.50;99.90
997;DHT22;487;50.126;8.698;2023-08-07T08:14:05;14.60;99.90
997;DHT22;487;50.126;8.698;2023-08-07T08:16:33;14.50;99.90
997;DHT22;487;50.126;8.698;2023-08-07T08:19:01;14.50;99.90
997;DHT22;487;50.126;8.698;2023-08-07T08:21:30;14.50;99.90
997;DHT22;487;50.126;8.698;2023-08-07T08:23:59;14.60;99.90
997;DHT22;487;50.126;8.698;2023-08-07T08:26:27;14.60;99.90
997;DHT22;487;50.126;8.698;2023-08-07T08:28:55;14.50;99.90
997;DHT22;487;50.126;8.698;2023-08-07T08:31:23;14.50;99.90
997;DHT22;487;50.126;8.698;2023-08-07T08:36:19;14.60;99.90
997;DHT22;487;50.126;8.698;2023-08-07T08:38:48;14.70;99.90
997;DHT22;487;50.126;8.698;2023-08-07T08:41:18;14.80;99.90
997;DHT22;487;50.126;8.698;2023-08-07T08:43:47;14.80;99.90
997;DHT22;487;50.126;8.698;2023-08-07T08:46:19;14.80;99.90
997;DHT22;487;50.126;8.698;2023-08-07T08:48:50;14.90;99.90
997;DHT22;487;50.126;8.698;2023-08-07T08:51:19;15.00;99.90
997;DHT22;487;50.126;8.698;2023-08-07T08:53:50;14.90;99.90
997;DHT22;487;50.126;8.698;2023-08-07T08:56:19;14.80;99.90
997;DHT22;487;50.126;8.698;2023-08-07T08:58:50;14.70;99.90
997;DHT22;487;50.126;8.698;2023-08-07T09:01:18;14.70;99.90
997;DHT22;487;50.126;8.698;2023-08-07T09:03:49;14.80;99.90
997;DHT22;487;50.126;8.698;2023-08-07T09:06:19;14.70;99.90
997;DHT22;487;50.126;8.698;2023-08-07T09:08:47;14.70;99.90
997;DHT22;487;50.126;8.698;2023-08-07T09:11:18;14.70;99.90
997;DHT22;487;50.126;8.698;2023-08-07T09:13:48;14.60;99.90
997;DHT22;487;50.126;8.698;2023-08-07T09:16:17;14.60;99.90
997;DHT22;487;50.126;8.698;2023-08-07T09:18:45;14.50;99.90
997;DHT22;487;50.126;8.698;2023-08-07T09:21:15;14.60;99.90
997;DHT22;487;50.126;8.698;2023-08-07T09:23:44;14.70;99.90
997;DHT22;487;50.126;8.698;2023-08-07T09:26:15;14.70;99.90
997;DHT22;487;50.126;8.698;2023-08-07T09:28:51;14.80;99.90
997;DHT22;487;50.126;8.698;2023-08-07T09:31:21;14.90;99.90
997;DHT22;487;50.126;8.698;2023-08-07T09:33:49;14.80;99.90
997;DHT22;487;50.126;8.698;2023-08-07T09:36:17;14.90;99.90
997;DHT22;487;50.126;8.698;2023-08-07T09:38:49;14.90;99.90
997;DHT22;487;50.126;8.698;2023-08-07T09:41:18;14.90;99.90
997;DHT22;487;50.126;8.698;2023-08-07T09:43:47;15.00;99.90
997;DHT22;487;50.126;8.698;2023-08-07T09:46:17;15.00;99.90
997;DHT22;487;50.126;8.698;2023-08-07T09:48:46;15.00;99.90
997;DHT22;487;50.126;8.698;2023-08-07T09:51:13;15.00;99.90
997;DHT22;487;50.126;8.698;2023-08-07T09:53:41;15.00;99.90
997;DHT22;487;50.126;8.698;2023-08-07T09:56:09;15.10;99.90
997;DHT22;487;50.126;8.698;2023-08-07T09:58:37;15.10;99.90
997;DHT22;487;50.126;8.698;2023-08-07T10:01:05;15.20;99.90
997;DHT22;487;50.126;8.698;2023-08-07T10:03:38;15.20;99.90
997;DHT22;487;50.126;8.698;2023-08-07T10:06:06;15.20;99.90
997;DHT22;487;50.126;8.698;2023-08-07T10:08:35;15.20;99.90
997;DHT22;487;50.126;8.698;2023-08-07T10:11:05;15.10;99.90
997;DHT22;487;50.126;8.698;2023-08-07T10:13:34;15.10;99.90
997;DHT22;487;50.126;8.698;2023-08-07T10:18:34;14.90;99.90
997;DHT22;487;50.126;8.698;2023-08-07T10:21:05;14.90;99.90
997;DHT22;487;50.126;8.698;2023-08-07T10:23:35;14.90;99.90
997;DHT22;487;50.126;8.698;2023-08-07T10:26:04;14.90;99.90
997;DHT22;487;50.126;8.698;2023-08-07T10:28:37;14.80;99.90
997;DHT22;487;50.126;8.698;2023-08-07T10:31:07;14.70;99.90
997;DHT22;487;50.126;8.698;2023-08-07T10:33:36;14.70;99.90
997;DHT22;487;50.126;8.698;2023-08-07T10:36:10;14.80;99.90
997;DHT22;487;50.126;8.698;2023-08-07T10:38:38;14.80;99.90
997;DHT22;487;50.126;8.698;2023-08-07T10:41:07;14.80;99.90
997;DHT22;487;50.126;8.698;2023-08-07T10:43:39;14.90;99.90
997;DHT22;487;50.126;8.698;2023-08-07T10:46:10;14.90;99.90
997;DHT22;487;50.126;8.698;2023-08-07T10:48:39;15.00;99.90
997;DHT22;487;50.126;8.698;2023-08-07T10:51:12;15.00;99.90
997;DHT22;487;50.126;8.698;2023-08-07T10:53:41;15.00;99.90
997;DHT22;487;50.126;8.698;2023-08-07T10:56:17;15.00;99.90
997;DHT22;487;50.126;8.698;2023-08-07T10:58:50;15.00;99.90
997;DHT22;487;50.126;8.698;2023-08-07T11:01:20;12.30;99.90
997;DHT22;487;50.126;8.698;2023-08-07T11:03:49;15.10;99.90
997;DHT22;487;50.126;8.698;2023-08-07T11:06:22;15.10;99.90
997;DHT22;487;50.126;8.698;2023-08-07T11:08:51;15.00;99.90
997;DHT22;487;50.126;8.698;2023-08-07T11:11:19;15.00;99.90
997;DHT22;487;50.126;8.698;2023-08-07T11:13:47;15.10;99.90
997;DHT22;487;50.126;8.698;2023-08-07T11:16:15;15.10;99.90
997;DHT22;487;50.126;8.698;2023-08-07T11:18:43;15.20;99.90
997;DHT22;487;50.126;8.698;2023-08-07T11:21:11;15.20;99.90
997;DHT22;487;50.126;8.698;2023-08-07T11:23:41;15.20;99.90
997;DHT22;487;50.126;8.698;2023-08-07T11:26:10;15.20;99.90
997;DHT22;487;50.126;8.698;2023-08-07T11:28:38;15.30;99.90
997;DHT22;487;50.126;8.698;2023-08-07T11:31:06;15.40;99.90
997;DHT22;487;50.126;8.698;2023-08-07T11:33:36;15.40;99.90
997;DHT22;487;50.126;8.698;2023-08-07T11:36:10;15.50;99.90
997;DHT22;487;50.126;8.698;2023-08-07T11:38:41;15.40;99.90
997;DHT22;487;50.126;8.698;2023-08-07T11:41:12;15.50;99.90
997;DHT22;487;50.126;8.698;2023-08-07T11:43:42;15.50;99.90
997;DHT22;487;50.126;8.698;2023-08-07T11:46:12;15.60;99.90
997;DHT22;487;50.126;8.698;2023-08-07T11:48:44;15.60;99.90
997;DHT22;487;50.126;8.698;2023-08-07T11:51:12;15.60;99.90
997;DHT22;487;50.126;8.698;2023-08-07T11:53:42;15.60;99.90
997;DHT22;487;50.126;8.698;2023-08-07T11:56:13;15.60;99.90
997;DHT22;487;50.126;8.698;2023-08-07T11:58:42;15.70;99.90
997;DHT22;487;50.126;8.698;2023-08-07T12:01:15;15.70;99.90
997;DHT22;487;50.126;8.698;2023-08-07T12:03:56;15.80;99.90
997;DHT22;487;50.126;8.698;2023-08-07T12:06:25;15.80;99.90
997;DHT22;487;50.126;8.698;2023-08-07T12:08:56;15.90;99.90
997;DHT22;487;50.126;8.698;2023-08-07T12:11:24;16.00;99.90
997;DHT22;487;50.126;8.698;2023-08-07T12:13:54;16.10;99.90
997;DHT22;487;50.126;8.698;2023-08-07T12:16:22;16.20;99.90
997;DHT22;487;50.126;8.698;2023-08-07T12:21:21;16.40;99.90
997;DHT22;487;50.126;8.698;2023-08-07T12:23:51;16.40;99.90
997;DHT22;487;50.126;8.698;2023-08-07T12:26:20;16.50;99.90
997;DHT22;487;50.126;8.698;2023-08-07T12:28:48;16.50;99.90
997;DHT22;487;50.126;8.698;2023-08-07T12:31:17;16.60;99.90
997;DHT22;487;50.126;8.698;2023-08-07T12:33:45;16.70;99.90
997;DHT22;487;50.126;8.698;2023-08-07T12:36:14;16.80;99.90
997;DHT22;487;50.126;8.698;2023-08-07T12:38:45;17.00;99.90
997;DHT22;487;50.126;8.698;2023-08-07T12:41:13;17.10;99.90
997;DHT22;487;50.126;8.698;2023-08-07T12:51:26;17.60;99.90
997;DHT22;487;50.126;8.698;2023-08-07T12:53:54;17.70;99.90
997;DHT22;487;50.126;8.698;2023-08-07T12:56:22;17.70;99.90
997;DHT22;487;50.126;8.698;2023-08-07T12:58:49;17.80;99.90
997;DHT22;487;50.126;8.698;2023-08-07T13:01:19;17.90;99.90
997;DHT22;487;50.126;8.698;2023-08-07T13:03:48;17.90;99.90
997;DHT22;487;50.126;8.698;2023-08-07T13:06:16;17.80;99.90
997;DHT22;487;50.126;8.698;2023-08-07T13:08:44;17.90;99.90
997;DHT22;487;50.126;8.698;2023-08-07T13:11:13;17.90;99.90
997;DHT22;487;50.126;8.698;2023-08-07T13:13:41;18.00;99.90
997;DHT22;487;50.126;8.698;2023-08-07T13:16:09;17.90;99.90
997;DHT22;487;50.126;8.698;2023-08-07T13:18:37;18.00;99.90
997;DHT22;487;50.126;8.698;2023-08-07T13:26:03;18.30;99.90
997;DHT22;487;50.126;8.698;2023-08-07T13:28:31;18.40;98.40
997;DHT22;487;50.126;8.698;2023-08-07T13:30:59;18.50;94.40
997;DHT22;487;50.126;8.698;2023-08-07T13:33:27;18.40;92.00
997;DHT22;487;50.126;8.698;2023-08-07T13:35:55;18.40;92.80
997;DHT22;487;50.126;8.698;2023-08-07T13:38:24;18.30;90.00
997;DHT22;487;50.126;8.698;2023-08-07T13:40:52;18.40;92.60
997;DHT22;487;50.126;8.698;2023-08-07T13:43:20;18.50;87.50
997;DHT22;487;50.126;8.698;2023-08-07T13:45:48;18.50;89.20
997;DHT22;487;50.126;8.698;2023-08-07T13:48:17;18.60;85.70
997;DHT22;487;50.126;8.698;2023-08-07T13:53:14;18.50;77.50
997;DHT22;487;50.126;8.698;2023-08-07T13:55:44;18.50;79.10
997;DHT22;487;50.126;8.698;2023-08-07T13:58:12;18.70;74.50
997;DHT22;487;50.126;8.698;2023-08-07T14:03:10;18.90;72.40
997;DHT22;487;50.126;8.698;2023-08-07T14:05:40;19.00;72.60
997;DHT22;487;50.126;8.698;2023-08-07T14:08:08;19.10;65.50
997;DHT22;487;50.126;8.698;2023-08-07T14:10:38;19.10;68.00
997;DHT22;487;50.126;8.698;2023-08-07T14:13:29;19.30;65.20
997;DHT22;487;50.126;8.698;2023-08-07T14:15:56;19.50;62.80
997;DHT22;487;50.126;8.698;2023-08-07T14:18:24;19.50;55.80
997;DHT22;487;50.126;8.698;2023-08-07T14:20:53;19.70;57.10
997;DHT22;487;50.126;8.698;2023-08-07T14:26:00;19.70;51.10
997;DHT22;487;50.126;8.698;2023-08-07T14:28:29;19.90;47.90
997;DHT22;487;50.126;8.698;2023-08-07T14:30:57;19.90;45.60
997;DHT22;487;50.126;8.698;2023-08-07T14:33:28;20.00;43.20
997;DHT22;487;50.126;8.698;2023-08-07T14:35:56;20.10;37.30
997;DHT22;487;50.126;8.698;2023-08-07T14:38:25;20.20;34.70
997;DHT22;487;50.126;8.698;2023-08-07T14:43:22;20.50;29.10
997;DHT22;487;50.126;8.698;2023-08-07T14:48:21;20.60;21.50
997;DHT22;487;50.126;8.698;2023-08-07T14:50:49;20.60;21.20
997;DHT22;487;50.126;8.698;2023-08-07T14:53:17;20.50;22.70
997;DHT22;487;50.126;8.698;2023-08-07T15:08:08;20.90;15.50
997;DHT22;487;50.126;8.698;2023-08-07T15:10:36;20.90;16.50
997;DHT22;487;50.126;8.698;2023-08-07T15:13:06;21.00;10.90
997;DHT22;487;50.126;8.698;2023-08-07T15:15:34;21.10;10.10
997;DHT22;487;50.126;8.698;2023-08-07T15:18:02;21.00;5.50
997;DHT22;487;50.126;8.698;2023-08-07T15:20:35;21.00;4.80
997;DHT22;487;50.126;8.698;2023-08-07T15:23:03;21.10;4.80
997;DHT22;487;50.126;8.698;2023-08-07T15:25:31;21.30;2.80
997;DHT22;487;50.126;8.698;2023-08-07T15:27:59;21.40;3.50
997;DHT22;487;50.126;8.698;2023-08-07T15:30:29;21.40;1.00
997;DHT22;487;50.126;8.698;2023-08-07T15:32:57;21.20;1.00
997;DHT22;487;50.126;8.698;2023-08-07T15:35:25;21.00;1.00
997;DHT22;487;50.126;8.698;2023-08-07T15:37:57;21.00;1.00
997;DHT22;487;50.126;8.698;2023-08-07T15:40:26;21.00;1.00
997;DHT22;487;50.126;8.698;2023-08-07T15:42:54;21.00;1.00
997;DHT22;487;50.126;8.698;2023-08-07T15:45:22;21.10;1.00
997;DHT22;487;50.126;8.698;2023-08-07T15:47:50;21.10;1.00
997;DHT22;487;50.126;8.698;2023-08-07T15:50:19;21.10;1.00
997;DHT22;487;50.126;8.698;2023-08-07T15:52:47;20.90;1.00
997;DHT22;487;50.126;8.698;2023-08-07T15:55:16;20.80;1.00
997;DHT22;487;50.126;8.698;2023-08-07T15:57:44;20.70;1.00
997;DHT22;487;50.126;8.698;2023-08-07T16:00:13;20.70;1.00
997;DHT22;487;50.126;8.698;2023-08-07T16:02:41;20.70;1.00
997;DHT22;487;50.126;8.698;2023-08-07T16:05:09;20.70;1.00
997;DHT22;487;50.126;8.698;2023-08-07T16:10:06;21.20;1.00
997;DHT22;487;50.126;8.698;2023-08-07T16:12:35;21.50;1.00
997;DHT22;487;50.126;8.698;2023-08-07T16:15:04;21.80;1.00
997;DHT22;487;50.126;8.698;2023-08-07T16:20:00;22.20;1.00
997;DHT22;487;50.126;8.698;2023-08-07T16:24:57;22.30;1.00
997;DHT22;487;50.126;8.698;2023-08-07T16:27:24;22.20;3.90
997;DHT22;487;50.126;8.698;2023-08-07T16:29:54;22.10;1.00
997;DHT22;487;50.126;8.698;2023-08-07T16:32:21;22.20;1.00
997;DHT22;487;50.126;8.698;2023-08-07T16:34:49;22.40;1.00
997;DHT22;487;50.126;8.698;2023-08-07T16:39:45;22.10;1.00
997;DHT22;487;50.126;8.698;2023-08-07T16:42:13;22.20;1.00
997;DHT22;487;50.126;8.698;2023-08-07T16:44:41;22.10;1.00
997;DHT22;487;50.126;8.698;2023-08-07T16:47:11;22.10;1.00
997;DHT22;487;50.126;8.698;2023-08-07T16:49:38;22.00;1.00
997;DHT22;487;50.126;8.698;2023-08-07T16:52:07;22.00;1.00
997;DHT22;487;50.126;8.698;2023-08-07T16:54:35;21.80;1.00
997;DHT22;487;50.126;8.698;2023-08-07T16:57:03;21.60;1.00
997;DHT22;487;50.126;8.698;2023-08-07T17:01:59;21.50;1.00
997;DHT22;487;50.126;8.698;2023-08-07T17:04:28;21.50;1.00
997;DHT22;487;50.126;8.698;2023-08-07T17:09:28;21.90;1.00
997;DHT22;487;50.126;8.698;2023-08-07T17:11:56;22.20;1.00
997;DHT22;487;50.126;8.698;2023-08-07T17:14:25;22.40;1.00
997;DHT22;487;50.126;8.698;2023-08-07T17:19:21;23.00;1.00
997;DHT22;487;50.126;8.698;2023-08-07T17:21:51;23.30;1.00
997;DHT22;487;50.126;8.698;2023-08-07T17:29:15;24.00;1.00
997;DHT22;487;50.126;8.698;2023-08-07T17:34:11;24.10;1.00
997;DHT22;487;50.126;8.698;2023-08-07T17:36:39;24.10;1.00
997;DHT22;487;50.126;8.698;2023-08-07T17:39:08;24.20;1.00
997;DHT22;487;50.126;8.698;2023-08-07T17:41:36;24.40;1.00
997;DHT22;487;50.126;8.698;2023-08-07T17:56:27;25.30;1.00
997;DHT22;487;50.126;8.698;2023-08-07T17:58:55;25.50;1.00
997;DHT22;487;50.126;8.698;2023-08-07T18:01:23;25.50;1.00
997;DHT22;487;50.126;8.698;2023-08-07T18:03:51;25.80;1.00
997;DHT22;487;50.126;8.698;2023-08-07T18:06:22;25.80;1.00
997;DHT22;487;50.126;8.698;2023-08-07T18:08:50;25.70;1.00
997;DHT22;487;50.126;8.698;2023-08-07T18:11:17;25.40;1.00
997;DHT22;487;50.126;8.698;2023-08-07T18:13:47;22.00;1.00
997;DHT22;487;50.126;8.698;2023-08-07T18:16:15;24.00;1.00
997;DHT22;487;50.126;8.698;2023-08-07T18:18:43;23.70;1.00
997;DHT22;487;50.126;8.698;2023-08-07T18:21:11;23.50;1.00
997;DHT22;487;50.126;8.698;2023-08-07T18:23:39;23.10;1.00
997;DHT22;487;50.126;8.698;2023-08-07T18:26:07;23.00;1.00
997;DHT22;487;50.126;8.698;2023-08-07T18:28:35;22.80;1.00
997;DHT22;487;50.126;8.698;2023-08-07T18:31:06;22.50;1.00
997;DHT22;487;50.126;8.698;2023-08-07T18:33:34;22.30;1.00
997;DHT22;487;50.126;8.698;2023-08-07T18:36:02;22.20;1.00
997;DHT22;487;50.126;8.698;2023-08-07T18:38:31;21.60;1.00
997;DHT22;487;50.126;8.698;2023-08-07T18:40:59;21.60;1.00
997;DHT22;487;50.126;8.698;2023-08-07T18:43:27;21.00;1.00
997;DHT22;487;50.126;8.698;2023-08-07T18:45:55;20.90;1.00
997;DHT22;487;50.126;8.698;2023-08-07T18:48:24;20.70;1.00
997;DHT22;487;50.126;8.698;2023-08-07T18:50:54;20.50;1.00
997;DHT22;487;50.126;8.698;2023-08-07T18:53:23;20.10;1.00
997;DHT22;487;50.126;8.698;2023-08-07T18:55:51;20.10;1.00
997;DHT22;487;50.126;8.698;2023-08-07T18:58:19;19.90;1.00
997;DHT22;487;50.126;8.698;2023-08-07T19:00:46;19.80;1.00
997;DHT22;487;50.126;8.698;2023-08-07T19:03:14;19.80;1.00
997;DHT22;487;50.126;8.698;2023-08-07T19:05:47;19.80;1.00
997;DHT22;487;50.126;8.698;2023-08-07T19:08:15;19.70;1.00
997;DHT22;487;50.126;8.698;2023-08-07T19:50:26;18.70;1.00
997;DHT22;487;50.126;8.698;2023-08-07T19:52:54;18.70;1.00
997;DHT22;487;50.126;8.698;2023-08-07T19:55:22;18.60;1.00
997;DHT22;487;50.126;8.698;2023-08-07T19:57:51;18.60;1.00
997;DHT22;487;50.126;8.698;2023-08-07T20:00:19;18.60;1.00
997;DHT22;487;50.126;8.698;2023-08-07T20:02:47;18.50;1.00
997;DHT22;487;50.126;8.698;2023-08-07T20:05:15;18.40;1.00
997;DHT22;487;50.126;8.698;2023-08-07T20:07:43;18.40;1.00
997;DHT22;487;50.126;8.698;2023-08-07T20:10:11;18.40;1.00
997;DHT22;487;50.126;8.698;2023-08-07T20:12:40;18.40;1.00
997;DHT22;487;50.126;8.698;2023-08-07T20:15:10;18.40;1.00
997;DHT22;487;50.126;8.698;2023-08-07T20:17:39;18.40;1.00
997;DHT22;487;50.126;8.698;2023-08-07T20:20:08;18.40;1.00
997;DHT22;487;50.126;8.698;2023-08-07T20:22:39;18.30;1.00
997;DHT22;487;50.126;8.698;2023-08-07T20:25:08;18.40;1.00
997;DHT22;487;50.126;8.698;2023-08-07T20:27:36;18.40;1.00
997;DHT22;487;50.126;8.698;2023-08-07T20:30:05;18.40;1.00
997;DHT22;487;50.126;8.698;2023-08-07T20:32:35;18.40;1.00
997;DHT22;487;50.126;8.698;2023-08-07T20:35:03;18.30;1.00
997;DHT22;487;50.126;8.698;2023-08-07T20:37:32;18.30;1.00
997;DHT22;487;50.126;8.698;2023-08-07T20:40:00;18.30;1.00
997;DHT22;487;50.126;8.698;2023-08-07T20:42:28;18.20;1.00
997;DHT22;487;50.126;8.698;2023-08-07T20:44:56;18.20;1.00
997;DHT22;487;50.126;8.698;2023-08-07T20:47:24;18.10;1.00
997;DHT22;487;50.126;8.698;2023-08-07T20:49:53;18.10;1.00
997;DHT22;487;50.126;8.698;2023-08-07T20:52:21;18.10;1.70
997;DHT22;487;50.126;8.698;2023-08-07T20:54:49;18.10;1.00
997;DHT22;487;50.126;8.698;2023-08-07T20:57:17;18.10;1.00
997;DHT22;487;50.126;8.698;2023-08-07T20:59:45;18.10;1.00
997;DHT22;487;50.126;8.698;2023-08-07T21:02:12;18.10;1.00
997;DHT22;487;50.126;8.698;2023-08-07T21:04:40;18.10;1.00
997;DHT22;487;50.126;8.698;2023-08-07T21:07:09;18.10;1.00
997;DHT22;487;50.126;8.698;2023-08-07T21:09:37;18.00;4.20
997;DHT22;487;50.126;8.698;2023-08-07T21:12:06;17.90;1.00
997;DHT22;487;50.126;8.698;2023-08-07T21:14:34;17.90;1.00
997;DHT22;487;50.126;8.698;2023-08-07T21:19:31;17.80;1.00
997;DHT22;487;50.126;8.698;2023-08-07T21:22:01;17.70;1.00
997;DHT22;487;50.126;8.698;2023-08-07T21:24:30;17.60;1.00
997;DHT22;487;50.126;8.698;2023-08-07T21:26:58;17.60;1.00
997;DHT22;487;50.126;8.698;2023-08-07T21:29:26;17.50;8.10
997;DHT22;487;50.126;8.698;2023-08-07T21:31:54;17.50;2.70
997;DHT22;487;50.126;8.698;2023-08-07T21:34:22;17.50;2.50
997;DHT22;487;50.126;8.698;2023-08-07T21:36:50;17.40;3.50
997;DHT22;487;50.126;8.698;2023-08-07T21:39:18;17.40;4.30
997;DHT22;487;50.126;8.698;2023-08-07T21:41:47;17.30;5.20
997;DHT22;487;50.126;8.698;2023-08-07T21:44:15;17.30;6.80
997;DHT22;487;50.126;8.698;2023-08-07T21:46:43;17.30;7.60
997;DHT22;487;50.126;8.698;2023-08-07T21:49:11;17.30;7.70
997;DHT22;487;50.126;8.698;2023-08-07T21:51:39;17.20;8.30
997;DHT22;487;50.126;8.698;2023-08-07T21:54:07;17.30;8.90
997;DHT22;487;50.126;8.698;2023-08-07T21:56:35;17.30;8.90
997;DHT22;487;50.126;8.698;2023-08-07T21:59:05;17.20;9.50
997;DHT22;487;50.126;8.698;2023-08-07T22:01:32;17.00;10.90
997;DHT22;487;50.126;8.698;2023-08-07T22:04:01;17.00;11.60
997;DHT22;487;50.126;8.698;2023-08-07T22:06:29;16.90;13.00
997;DHT22;487;50.126;8.698;2023-08-07T22:08:56;16.90;13.20
997;DHT22;487;50.126;8.698;2023-08-07T22:11:24;16.80;13.30
997;DHT22;487;50.126;8.698;2023-08-07T22:13:52;16.80;14.70
997;DHT22;487;50.126;8.698;2023-08-07T22:16:21;16.80;15.00
997;DHT22;487;50.126;8.698;2023-08-07T22:18:49;16.80;23.20
997;DHT22;487;50.126;8.698;2023-08-07T22:21:17;16.70;15.40
997;DHT22;487;50.126;8.698;2023-08-07T22:23:45;16.70;15.90
997;DHT22;487;50.126;8.698;2023-08-07T22:26:13;16.70;16.30
997;DHT22;487;50.126;8.698;2023-08-07T22:28:41;16.70;17.30
997;DHT22;487;50.126;8.698;2023-08-07T22:31:09;16.70;16.70
997;DHT22;487;50.126;8.698;2023-08-07T22:33:38;16.70;15.90
997;DHT22;487;50.126;8.698;2023-08-07T22:36:06;16.80;16.00
997;DHT22;487;50.126;8.698;2023-08-07T22:38:38;16.80;16.20
997;DHT22;487;50.126;8.698;2023-08-07T22:41:06;16.70;16.10
997;DHT22;487;50.126;8.698;2023-08-07T22:43:34;16.70;16.00
997;DHT22;487;50.126;8.698;2023-08-07T22:46:02;16.70;16.90
997;DHT22;487;50.126;8.698;2023-08-07T22:48:30;16.70;17.50
997;DHT22;487;50.126;8.698;2023-08-07T22:50:59;16.80;17.70
997;DHT22;487;50.126;8.698;2023-08-07T22:53:26;16.80;26.40
997;DHT22;487;50.126;8.698;2023-08-07T22:55:54;16.80;17.50
997;DHT22;487;50.126;8.698;2023-08-07T22:58:22;16.80;17.30